createdAt,value
2018-09-29T00:02:14.665Z,16.19
2018-09-29T00:04:45.160Z,16.20
2018-09-29T00:07:15.410Z,16.22
2018-09-29T00:09:45.910Z,16.21
2018-09-29T00:12:16.258Z,16.23
2018-09-29T00:14:46.754Z,16.18
2018-09-29T00:17:17.083Z,16.15
2018-09-29T00:19:47.418Z,16.18
2018-09-29T00:22:17.651Z,16.21
2018-09-29T00:24:47.917Z,16.23
2018-09-29T00:27:18.224Z,16.22
2018-09-29T00:29:48.696Z,16.12
2018-09-29T00:32:19.005Z,16.12
2018-09-29T00:34:49.366Z,16.07
2018-09-29T00:37:19.494Z,16.09
2018-09-29T00:39:49.897Z,16.02
2018-09-29T00:42:20.154Z,16.04
2018-09-29T00:44:50.807Z,16.02
2018-09-29T00:47:21.099Z,16.08
2018-09-29T00:49:51.303Z,16.06
2018-09-29T00:52:21.583Z,16.03
2018-09-29T00:54:51.923Z,15.95
2018-09-29T00:57:22.243Z,15.96
2018-09-29T00:59:52.546Z,15.94
2018-09-29T01:02:23.117Z,15.92
2018-09-29T01:04:54.141Z,15.95
2018-09-29T01:07:24.659Z,15.93
2018-09-29T01:09:55.021Z,15.91
2018-09-29T01:12:25.479Z,15.95
2018-09-29T01:14:55.960Z,15.70
2018-09-29T01:17:26.426Z,15.63
2018-09-29T01:19:56.831Z,15.54
2018-09-29T01:22:27.132Z,15.51
2018-09-29T01:24:57.726Z,15.45
2018-09-29T01:27:28.103Z,15.46
2018-09-29T01:29:58.645Z,15.40
2018-09-29T01:32:29.053Z,15.33
2018-09-29T01:34:59.348Z,15.36
2018-09-29T01:37:29.886Z,15.33
2018-09-29T01:40:00.359Z,15.31
2018-09-29T01:42:30.755Z,15.30
2018-09-29T01:45:01.056Z,15.25
2018-09-29T01:47:31.379Z,15.22
2018-09-29T01:50:01.841Z,15.20
2018-09-29T01:52:38.912Z,15.12
2018-09-29T01:55:09.428Z,15.05
2018-09-29T01:57:39.772Z,15.07
2018-09-29T02:00:10.223Z,15.05
2018-09-29T02:02:40.852Z,15.08
2018-09-29T02:05:11.134Z,15.10
2018-09-29T02:07:41.689Z,15.16
2018-09-29T02:10:12.276Z,15.14
2018-09-29T02:12:42.742Z,15.15
2018-09-29T02:15:13.347Z,15.08
2018-09-29T02:17:43.615Z,15.16
2018-09-29T02:20:13.936Z,15.22
2018-09-29T02:22:44.348Z,15.22
2018-09-29T02:25:14.639Z,15.19
2018-09-29T02:27:45.004Z,15.19
2018-09-29T02:30:15.314Z,15.15
2018-09-29T02:32:45.606Z,15.09
2018-09-29T02:35:15.926Z,15.02
2018-09-29T02:37:46.316Z,14.99
2018-09-29T02:40:16.733Z,15.01
2018-09-29T02:42:47.237Z,15.10
2018-09-29T02:45:17.420Z,15.07
2018-09-29T02:47:47.784Z,14.96
2018-09-29T02:50:18.125Z,14.90
2018-09-29T02:52:48.423Z,14.91
2018-09-29T02:55:18.892Z,14.86
2018-09-29T02:57:49.361Z,14.81
2018-09-29T03:00:19.754Z,14.81
2018-09-29T03:02:50.109Z,14.79
2018-09-29T03:05:23.208Z,14.81
2018-09-29T03:07:53.623Z,14.77
2018-09-29T03:10:24.206Z,14.77
2018-09-29T03:12:54.371Z,14.79
2018-09-29T03:15:24.750Z,14.79
2018-09-29T03:17:55.616Z,14.77
2018-09-29T03:20:26.112Z,14.79
2018-09-29T03:22:56.426Z,14.80
2018-09-29T03:25:26.615Z,14.86
2018-09-29T03:27:56.964Z,14.86
2018-09-29T03:30:30.237Z,14.82
2018-09-29T03:33:00.791Z,14.79
2018-09-29T03:35:31.113Z,14.78
2018-09-29T03:38:01.478Z,14.74
2018-09-29T03:40:32.395Z,14.80
2018-09-29T03:43:02.823Z,14.85
2018-09-29T03:45:33.355Z,14.75
2018-09-29T03:48:03.759Z,14.67
2018-09-29T03:50:34.003Z,14.60
2018-09-29T03:53:04.263Z,14.55
2018-09-29T03:55:34.623Z,14.46
2018-09-29T03:58:05.072Z,14.44
2018-09-29T04:00:35.336Z,14.42
2018-09-29T04:03:05.581Z,14.37
2018-09-29T04:05:36.167Z,14.29
2018-09-29T04:08:06.448Z,14.24
2018-09-29T04:10:36.827Z,14.20
2018-09-29T04:13:07.217Z,14.18
2018-09-29T04:15:38.224Z,14.15
2018-09-29T04:18:08.862Z,14.15
2018-09-29T04:20:39.341Z,14.11
2018-09-29T04:23:09.750Z,14.07
2018-09-29T04:25:40.070Z,14.01
2018-09-29T04:28:10.406Z,13.94
2018-09-29T04:30:40.735Z,13.91
2018-09-29T04:33:11.250Z,13.90
2018-09-29T04:35:41.559Z,13.86
2018-09-29T04:38:11.769Z,13.86
2018-09-29T04:40:42.253Z,13.84
2018-09-29T04:43:12.690Z,13.78
2018-09-29T04:45:42.960Z,13.77
2018-09-29T04:48:13.308Z,13.78
2018-09-29T04:50:43.814Z,13.83
2018-09-29T04:53:14.256Z,13.85
2018-09-29T04:55:44.577Z,13.83
2018-09-29T04:58:15.016Z,13.84
2018-09-29T05:00:45.382Z,13.90
2018-09-29T05:03:15.742Z,13.97
2018-09-29T05:05:45.883Z,14.02
2018-09-29T05:08:16.541Z,14.04
2018-09-29T05:10:46.990Z,13.98
2018-09-29T05:13:17.262Z,13.93
2018-09-29T05:15:47.715Z,13.86
2018-09-29T05:18:18.018Z,13.87
2018-09-29T05:20:48.478Z,13.81
2018-09-29T05:23:18.769Z,13.79
2018-09-29T05:25:49.132Z,13.73
2018-09-29T05:28:19.429Z,13.65
2018-09-29T05:30:49.862Z,13.58
2018-09-29T05:33:20.151Z,13.63
2018-09-29T05:35:50.632Z,13.67
2018-09-29T05:38:21.031Z,13.73
2018-09-29T05:40:51.333Z,13.84
2018-09-29T05:43:21.715Z,13.93
2018-09-29T05:45:51.942Z,13.92
2018-09-29T05:48:22.347Z,13.99
2018-09-29T05:50:52.789Z,14.07
2018-09-29T05:53:23.067Z,14.15
2018-09-29T05:55:53.498Z,14.22
2018-09-29T05:58:23.823Z,14.25
2018-09-29T06:00:54.191Z,14.29
2018-09-29T06:03:24.444Z,14.30
2018-09-29T06:05:54.747Z,14.34
2018-09-29T06:08:25.062Z,14.35
2018-09-29T06:10:55.221Z,14.48
2018-09-29T06:13:25.476Z,14.44
2018-09-29T06:15:56.011Z,14.50
2018-09-29T06:18:26.308Z,14.56
2018-09-29T06:20:56.726Z,14.62
2018-09-29T06:23:26.962Z,14.73
2018-09-29T06:25:57.423Z,14.79
2018-09-29T06:28:27.838Z,14.91
2018-09-29T06:30:58.180Z,14.86
2018-09-29T06:33:28.434Z,14.75
2018-09-29T06:35:58.393Z,14.78
2018-09-29T06:38:28.888Z,14.81
2018-09-29T06:40:59.253Z,14.86
2018-09-29T06:43:29.641Z,15.05
2018-09-29T06:46:00.230Z,15.33
2018-09-29T06:48:30.634Z,15.61
2018-09-29T06:51:01.082Z,15.61
2018-09-29T06:53:31.258Z,15.62
2018-09-29T06:56:01.633Z,15.73
2018-09-29T06:58:31.911Z,15.76
2018-09-29T07:01:02.488Z,15.66
2018-09-29T07:03:32.726Z,15.62
2018-09-29T07:06:03.044Z,15.70
2018-09-29T07:08:33.604Z,15.89
2018-09-29T07:11:04.117Z,16.19
2018-09-29T07:13:34.441Z,16.17
2018-09-29T07:16:04.911Z,16.25
2018-09-29T07:18:35.212Z,16.44
2018-09-29T07:21:05.760Z,16.16
2018-09-29T07:23:36.330Z,16.00
2018-09-29T07:26:06.800Z,16.06
2018-09-29T07:28:37.251Z,16.10
2018-09-29T07:31:08.509Z,16.16
2018-09-29T07:33:38.949Z,16.34
2018-09-29T07:36:09.402Z,16.25
2018-09-29T07:38:39.606Z,16.36
2018-09-29T07:41:09.930Z,16.59
2018-09-29T07:43:40.319Z,16.80
2018-09-29T07:46:10.832Z,17.09
2018-09-29T07:48:41.164Z,17.30
2018-09-29T07:51:11.538Z,17.09
2018-09-29T07:53:41.927Z,16.82
2018-09-29T07:56:12.191Z,17.02
2018-09-29T07:58:42.631Z,17.17
2018-09-29T08:01:13.128Z,17.04
2018-09-29T08:03:43.687Z,16.96
2018-09-29T08:06:13.919Z,17.03
2018-09-29T08:08:44.323Z,17.20
2018-09-29T08:11:14.660Z,17.36
2018-09-29T08:13:45.164Z,17.47
2018-09-29T08:16:15.356Z,17.62
2018-09-29T08:18:45.789Z,17.71
2018-09-29T08:21:16.262Z,17.51
2018-09-29T08:23:46.863Z,17.49
2018-09-29T08:26:17.051Z,17.45
2018-09-29T08:28:47.496Z,17.44
2018-09-29T08:31:17.718Z,17.40
2018-09-29T08:33:48.150Z,17.32
2018-09-29T08:36:18.544Z,17.24
2018-09-29T08:38:48.996Z,17.28
2018-09-29T08:41:19.299Z,17.53
2018-09-29T08:43:49.738Z,17.73
2018-09-29T08:46:20.087Z,17.85
2018-09-29T08:48:50.449Z,17.65
2018-09-29T08:51:20.742Z,17.79
2018-09-29T08:53:51.060Z,17.79
2018-09-29T08:56:21.516Z,17.88
2018-09-29T08:58:51.947Z,17.72
2018-09-29T09:01:22.228Z,17.69
2018-09-29T09:03:52.574Z,17.81
2018-09-29T09:06:22.871Z,18.21
2018-09-29T09:08:53.188Z,18.63
2018-09-29T09:11:23.536Z,18.95
2018-09-29T09:13:53.759Z,19.18
2018-09-29T09:16:24.114Z,18.93
2018-09-29T09:18:54.460Z,19.16
2018-09-29T09:21:24.865Z,19.70
2018-09-29T09:23:55.041Z,20.05
2018-09-29T09:26:25.531Z,20.39
2018-09-29T09:28:55.934Z,20.26
2018-09-29T09:31:26.126Z,20.17
2018-09-29T09:33:56.527Z,20.67
2018-09-29T09:36:26.840Z,20.81
2018-09-29T09:38:56.970Z,21.06
2018-09-29T09:41:27.380Z,21.05
2018-09-29T09:44:04.524Z,21.06
2018-09-29T09:46:34.999Z,21.38
2018-09-29T09:49:05.485Z,21.37
2018-09-29T09:51:36.036Z,21.20
2018-09-29T09:54:06.403Z,21.36
2018-09-29T09:56:36.735Z,20.88
2018-09-29T09:59:07.167Z,20.60
2018-09-29T10:01:42.517Z,20.55
2018-09-29T10:04:13.065Z,20.67
2018-09-29T10:06:43.621Z,20.76
2018-09-29T10:09:14.345Z,21.21
2018-09-29T10:11:45.368Z,21.49
2018-09-29T10:14:15.807Z,21.75
2018-09-29T10:16:46.136Z,22.08
2018-09-29T10:19:16.556Z,22.45
2018-09-29T10:21:47.054Z,22.61
2018-09-29T10:24:17.496Z,22.59
2018-09-29T10:26:47.952Z,22.98
2018-09-29T10:29:18.107Z,23.46
2018-09-29T10:31:48.610Z,23.72
2018-09-29T10:34:18.813Z,24.13
2018-09-29T10:36:49.355Z,24.22
2018-09-29T10:39:19.856Z,24.50
2018-09-29T10:41:50.365Z,24.83
2018-09-29T10:44:20.667Z,24.79
2018-09-29T10:46:51.067Z,24.27
2018-09-29T10:49:21.146Z,24.16
2018-09-29T10:51:51.472Z,24.24
2018-09-29T10:54:21.966Z,23.14
2018-09-29T10:56:52.275Z,23.32
2018-09-29T10:59:22.671Z,22.62
2018-09-29T11:01:53.025Z,23.30
2018-09-29T11:04:23.311Z,24.01
2018-09-29T11:06:53.760Z,23.76
2018-09-29T11:09:24.012Z,24.25
2018-09-29T11:11:54.952Z,25.22
2018-09-29T11:14:25.417Z,25.98
2018-09-29T11:16:55.705Z,27.00
2018-09-29T11:19:26.303Z,27.42
2018-09-29T11:21:56.740Z,27.81
2018-09-29T11:24:27.044Z,27.38
2018-09-29T11:26:57.643Z,26.63
2018-09-29T11:29:27.969Z,25.81
2018-09-29T11:31:58.436Z,26.02
2018-09-29T11:34:28.687Z,27.29
2018-09-29T11:36:59.195Z,29.45
2018-09-29T11:39:29.682Z,31.80
2018-09-29T11:42:00.136Z,33.08
2018-09-29T11:44:30.384Z,31.67
2018-09-29T11:47:00.556Z,34.43
2018-09-29T11:49:30.740Z,37.48
2018-09-29T11:52:00.658Z,40.34
2018-09-29T11:54:30.695Z,41.57
2018-09-29T11:57:00.647Z,42.13
2018-09-29T11:59:30.966Z,44.01
2018-09-29T12:02:01.285Z,42.16
2018-09-29T12:04:31.595Z,38.97
2018-09-29T12:07:01.954Z,38.14
2018-09-29T12:09:32.352Z,41.09
2018-09-29T12:12:02.784Z,41.88
2018-09-29T12:14:33.082Z,39.03
2018-09-29T12:17:03.626Z,36.43
2018-09-29T12:19:33.625Z,33.56
2018-09-29T12:22:03.601Z,34.24
2018-09-29T12:24:33.611Z,36.91
2018-09-29T12:27:03.560Z,39.46
2018-09-29T12:29:33.505Z,41.73
2018-09-29T12:32:03.455Z,43.84
2018-09-29T12:34:33.415Z,43.52
2018-09-29T12:37:10.866Z,44.45
2018-09-29T12:39:41.311Z,46.06
2018-09-29T12:42:12.604Z,46.17
2018-09-29T12:44:43.848Z,46.31
2018-09-29T12:47:14.144Z,45.84
2018-09-29T12:49:45.890Z,45.28
2018-09-29T12:52:16.894Z,44.73
2018-09-29T12:54:47.307Z,43.65
2018-09-29T12:57:17.920Z,42.68
2018-09-29T12:59:48.352Z,41.52
2018-09-29T13:02:19.863Z,38.89
2018-09-29T13:04:50.103Z,36.99
2018-09-29T13:07:21.412Z,36.40
2018-09-29T13:09:51.809Z,36.77
2018-09-29T13:12:22.149Z,37.67
2018-09-29T13:14:53.603Z,38.46
2018-09-29T13:17:23.933Z,39.14
2018-09-29T13:19:54.673Z,40.93
2018-09-29T13:22:25.427Z,40.98
2018-09-29T13:24:56.478Z,40.24
2018-09-29T13:27:27.158Z,40.14
2018-09-29T13:29:57.649Z,41.33
2018-09-29T13:32:29.227Z,41.70
2018-09-29T13:34:59.788Z,39.12
2018-09-29T13:37:30.925Z,38.09
2018-09-29T13:40:01.377Z,40.69
2018-09-29T13:42:31.373Z,42.18
2018-09-29T13:45:01.643Z,43.57
2018-09-29T13:47:32.064Z,44.23
2018-09-29T13:50:02.600Z,44.27
2018-09-29T13:52:33.176Z,44.26
2018-09-29T13:55:03.746Z,44.08
2018-09-29T13:57:33.939Z,41.09
2018-09-29T14:00:04.243Z,37.84
2018-09-29T14:02:34.636Z,38.14
2018-09-29T14:05:05.017Z,39.16
2018-09-29T14:07:35.265Z,39.43
2018-09-29T14:10:05.728Z,40.23
2018-09-29T14:12:35.967Z,40.20
2018-09-29T14:15:06.990Z,40.52
2018-09-29T14:17:37.568Z,40.61
2018-09-29T14:20:08.408Z,41.65
2018-09-29T14:22:38.683Z,41.88
2018-09-29T14:25:09.166Z,41.10
2018-09-29T14:27:39.530Z,41.49
2018-09-29T14:30:16.813Z,40.10
2018-09-29T14:32:46.734Z,39.32
2018-09-29T14:35:16.749Z,39.18
2018-09-29T14:37:47.241Z,38.08
2018-09-29T14:40:17.581Z,36.73
2018-09-29T14:42:48.091Z,37.03
2018-09-29T14:45:18.291Z,37.48
2018-09-29T14:47:48.781Z,37.76
2018-09-29T14:50:19.289Z,37.66
2018-09-29T14:52:49.588Z,35.24
2018-09-29T14:55:19.981Z,35.77
2018-09-29T14:57:50.394Z,35.07
2018-09-29T15:00:20.788Z,35.43
2018-09-29T15:02:50.928Z,34.62
2018-09-29T15:05:21.353Z,35.19
2018-09-29T15:07:51.872Z,34.80
2018-09-29T15:10:22.185Z,34.66
2018-09-29T15:12:52.712Z,34.46
2018-09-29T15:15:23.215Z,34.46
2018-09-29T15:17:53.647Z,34.43
2018-09-29T15:20:24.003Z,33.57
2018-09-29T15:22:54.411Z,32.68
2018-09-29T15:25:24.737Z,31.89
2018-09-29T15:27:55.161Z,31.51
2018-09-29T15:30:25.524Z,30.94
2018-09-29T15:32:55.816Z,29.52
2018-09-29T15:35:26.240Z,28.99
2018-09-29T15:37:56.652Z,28.12
2018-09-29T15:40:27.025Z,28.22
2018-09-29T15:42:57.448Z,28.14
2018-09-29T15:45:27.858Z,27.56
2018-09-29T15:47:58.484Z,27.00
2018-09-29T15:50:28.818Z,26.97
2018-09-29T15:52:59.359Z,26.61
2018-09-29T15:55:29.790Z,26.21
2018-09-29T15:58:00.114Z,25.53
2018-09-29T16:00:30.479Z,24.25
2018-09-29T16:03:00.910Z,23.30
2018-09-29T16:05:31.367Z,22.68
2018-09-29T16:08:01.690Z,22.65
2018-09-29T16:10:32.113Z,22.31
2018-09-29T16:13:02.537Z,22.03
2018-09-29T16:15:32.867Z,21.70
2018-09-29T16:18:03.477Z,21.14
2018-09-29T16:20:33.921Z,20.75
2018-09-29T16:23:04.193Z,20.27
2018-09-29T16:25:34.559Z,20.08
2018-09-29T16:28:05.018Z,19.59
2018-09-29T16:30:35.201Z,19.15
2018-09-29T16:33:05.439Z,18.97
2018-09-29T16:35:35.798Z,18.74
2018-09-29T16:38:06.680Z,18.32
2018-09-29T16:40:37.151Z,18.10
2018-09-29T16:43:07.745Z,17.97
2018-09-29T16:45:37.981Z,17.81
2018-09-29T16:48:08.512Z,17.59
2018-09-29T16:50:38.949Z,17.52
2018-09-29T16:53:09.490Z,17.44
2018-09-29T16:55:39.987Z,17.37
2018-09-29T16:58:10.305Z,17.25
2018-09-29T17:00:40.683Z,17.21
2018-09-29T17:03:10.827Z,17.13
2018-09-29T17:05:41.160Z,16.96
2018-09-29T17:08:11.519Z,16.96
2018-09-29T17:10:42.050Z,16.69
2018-09-29T17:13:12.480Z,16.51
2018-09-29T17:15:42.925Z,16.54
2018-09-29T17:18:13.380Z,16.45
2018-09-29T17:20:43.626Z,16.39
2018-09-29T17:23:14.041Z,16.28
2018-09-29T17:25:44.563Z,16.41
2018-09-29T17:28:14.936Z,16.32
2018-09-29T17:30:45.462Z,16.42
2018-09-29T17:33:15.913Z,16.30
2018-09-29T17:35:46.188Z,16.31
2018-09-29T17:38:16.627Z,16.25
2018-09-29T17:40:46.953Z,16.21
2018-09-29T17:43:17.418Z,16.28
2018-09-29T17:45:47.694Z,16.30
2018-09-29T17:48:18.340Z,16.22
2018-09-29T17:50:49.717Z,16.11
2018-09-29T17:53:20.144Z,15.98
2018-09-29T17:55:50.692Z,15.86
2018-09-29T17:58:20.998Z,15.68
2018-09-29T18:00:51.347Z,15.61
2018-09-29T18:03:21.709Z,15.49
2018-09-29T18:05:52.055Z,15.29
2018-09-29T18:08:22.541Z,15.14
2018-09-29T18:10:52.922Z,15.05
2018-09-29T18:13:23.445Z,14.96
2018-09-29T18:15:53.862Z,14.86
2018-09-29T18:18:25.789Z,14.80
2018-09-29T18:20:56.853Z,14.68
2018-09-29T18:23:27.550Z,14.73
2018-09-29T18:25:58.762Z,14.60
2018-09-29T18:28:29.336Z,14.63
2018-09-29T18:30:59.701Z,14.52
2018-09-29T18:33:31.144Z,14.32
2018-09-29T18:36:01.564Z,14.36
2018-09-29T18:38:33.415Z,14.18
2018-09-29T18:41:03.989Z,14.16
2018-09-29T18:43:35.118Z,14.01
2018-09-29T18:46:05.674Z,13.96
2018-09-29T18:48:37.164Z,13.97
2018-09-29T18:51:07.555Z,13.85
2018-09-29T18:53:38.388Z,13.78
2018-09-29T18:56:09.102Z,13.77
2018-09-29T18:58:40.250Z,13.78
2018-09-29T19:01:10.935Z,13.63
2018-09-29T19:03:41.523Z,13.53
2018-09-29T19:06:12.089Z,13.50
2018-09-29T19:08:43.157Z,13.47
2018-09-29T19:11:13.673Z,13.49
2018-09-29T19:13:44.670Z,13.48
2018-09-29T19:16:15.171Z,13.38
2018-09-29T19:18:45.673Z,13.32
2018-09-29T19:21:16.434Z,13.16
2018-09-29T19:23:46.945Z,13.10
2018-09-29T19:26:17.398Z,13.04
2018-09-29T19:28:47.743Z,12.99
2018-09-29T19:31:18.044Z,12.98
2018-09-29T19:33:48.608Z,12.93
2018-09-29T19:36:18.931Z,12.92
2018-09-29T19:38:49.163Z,12.86
2018-09-29T19:41:19.636Z,12.75
2018-09-29T19:43:50.125Z,12.64
2018-09-29T19:46:20.596Z,12.59
2018-09-29T19:48:51.124Z,12.51
2018-09-29T19:51:21.429Z,12.37
2018-09-29T19:53:52.269Z,12.29
2018-09-29T19:56:22.714Z,12.17
2018-09-29T19:58:53.051Z,11.95
2018-09-29T20:01:23.371Z,11.85
2018-09-29T20:03:53.696Z,11.84
2018-09-29T20:06:23.984Z,11.76
2018-09-29T20:08:54.387Z,11.67
2018-09-29T20:11:24.843Z,11.60
2018-09-29T20:13:55.329Z,11.61
2018-09-29T20:16:25.680Z,11.60
2018-09-29T20:18:56.120Z,11.75
2018-09-29T20:21:26.536Z,11.68
2018-09-29T20:23:57.085Z,11.49
2018-09-29T20:26:27.639Z,11.39
2018-09-29T20:28:58.075Z,11.47
2018-09-29T20:31:28.475Z,11.50
2018-09-29T20:33:58.930Z,11.45
2018-09-29T20:36:29.225Z,11.46
2018-09-29T20:38:59.677Z,11.50
2018-09-29T20:41:30.109Z,11.50
2018-09-29T20:44:00.539Z,11.46
2018-09-29T20:46:30.816Z,11.42
2018-09-29T20:49:01.286Z,11.46
2018-09-29T20:51:31.583Z,11.38
2018-09-29T20:54:02.134Z,11.34
2018-09-29T20:56:32.560Z,11.23
2018-09-29T20:59:02.786Z,11.25
2018-09-29T21:01:33.311Z,11.17
2018-09-29T21:04:03.887Z,11.08
2018-09-29T21:06:34.378Z,10.94
2018-09-29T21:09:06.149Z,10.90
2018-09-29T21:11:36.571Z,10.78
2018-09-29T21:14:07.230Z,10.70
2018-09-29T21:16:37.653Z,10.65
2018-09-29T21:19:07.946Z,10.60
2018-09-29T21:21:38.397Z,10.59
2018-09-29T21:24:08.697Z,10.57
2018-09-29T21:26:39.168Z,10.55
2018-09-29T21:29:09.635Z,10.62
2018-09-29T21:31:40.003Z,10.56
2018-09-29T21:34:10.315Z,10.57
2018-09-29T21:36:40.935Z,10.55
2018-09-29T21:39:11.481Z,10.48
2018-09-29T21:41:41.685Z,10.42
2018-09-29T21:44:12.089Z,10.41
2018-09-29T21:46:42.596Z,10.34
2018-09-29T21:49:13.050Z,10.32
2018-09-29T21:51:43.005Z,10.32
2018-09-29T21:54:13.368Z,10.33
2018-09-29T21:56:43.720Z,10.31
2018-09-29T21:59:14.129Z,10.26
2018-09-29T22:01:44.589Z,10.16
2018-09-29T22:04:14.984Z,10.03
2018-09-29T22:06:45.321Z,9.97
2018-09-29T22:09:22.995Z,10.01
2018-09-29T22:11:53.826Z,9.91
2018-09-29T22:14:24.238Z,9.96
2018-09-29T22:16:54.870Z,9.99
2018-09-29T22:19:25.362Z,9.98
2018-09-29T22:21:55.680Z,9.88
2018-09-29T22:24:26.015Z,9.93
2018-09-29T22:26:56.353Z,9.94
2018-09-29T22:29:26.947Z,9.96
2018-09-29T22:31:57.436Z,10.00
2018-09-29T22:34:27.758Z,9.93
2018-09-29T22:36:58.255Z,9.84
2018-09-29T22:39:28.717Z,9.77
2018-09-29T22:41:59.191Z,9.75
2018-09-29T22:44:29.540Z,9.74
2018-09-29T22:46:59.994Z,9.80
2018-09-29T22:49:30.357Z,9.75
2018-09-29T22:52:00.910Z,9.72
2018-09-29T22:54:31.335Z,9.67
2018-09-29T22:57:01.532Z,9.60
2018-09-29T22:59:31.963Z,9.57
2018-09-29T23:02:02.523Z,9.65
2018-09-29T23:04:32.939Z,9.62
2018-09-29T23:07:03.282Z,9.60
2018-09-29T23:09:33.527Z,9.46
2018-09-29T23:12:04.000Z,9.54
2018-09-29T23:14:34.414Z,9.41
2018-09-29T23:17:05.378Z,9.38
2018-09-29T23:19:35.966Z,9.38
2018-09-29T23:22:06.659Z,9.29
2018-09-29T23:24:36.814Z,9.19
2018-09-29T23:27:07.194Z,9.13
2018-09-29T23:29:37.539Z,9.22
2018-09-29T23:32:07.799Z,9.20
2018-09-29T23:34:38.187Z,9.17
2018-09-29T23:37:08.818Z,9.06
2018-09-29T23:39:39.243Z,9.05
2018-09-29T23:42:09.622Z,9.03
2018-09-29T23:44:39.942Z,9.01
2018-09-29T23:47:10.421Z,8.99
2018-09-29T23:49:40.881Z,9.06
2018-09-29T23:52:11.371Z,9.07
2018-09-29T23:54:41.719Z,9.07
2018-09-29T23:57:12.165Z,9.05
2018-09-29T23:59:42.453Z,9.06
